sensor_id;sensor_type;location;lat;lon;timestamp;temperature;humidity
7936;DHT22;4013;49.744;8.118;2023-04-24T00:02:25;11.40;99.90
7936;DHT22;4013;49.744;8.118;2023-04-24T00:04:52;11.40;99.90
7936;DHT22;4013;49.744;8.118;2023-04-24T00:07:21;11.40;99.90
7936;DHT22;4013;49.744;8.118;2023-04-24T00:09:48;11.40;99.90
7936;DHT22;4013;49.744;8.118;2023-04-24T00:12:16;11.50;99.90
7936;DHT22;4013;49.744;8.118;2023-04-24T00:14:42;11.50;99.90
7936;DHT22;4013;49.744;8.118;2023-04-24T00:17:09;11.50;99.90
7936;DHT22;4013;49.744;8.118;2023-04-24T00:19:36;11.40;99.90
7936;DHT22;4013;49.744;8.118;2023-04-24T00:22:03;11.50;99.90
7936;DHT22;4013;49.744;8.118;2023-04-24T00:24:32;11.50;99.90
7936;DHT22;4013;49.744;8.118;2023-04-24T00:26:59;11.40;99.90
7936;DHT22;4013;49.744;8.118;2023-04-24T00:29:26;11.40;99.90
7936;DHT22;4013;49.744;8.118;2023-04-24T00:31:54;11.40;99.90
7936;DHT22;4013;49.744;8.118;2023-04-24T00:34:21;11.40;99.90
7936;DHT22;4013;49.744;8.118;2023-04-24T00:36:48;11.40;99.90
7936;DHT22;4013;49.744;8.118;2023-04-24T00:39:17;11.40;99.90
7936;DHT22;4013;49.744;8.118;2023-04-24T00:41:46;11.40;99.90
7936;DHT22;4013;49.744;8.118;2023-04-24T00:44:13;11.40;99.90
7936;DHT22;4013;49.744;8.118;2023-04-24T00:46:41;11.40;99.90
7936;DHT22;4013;49.744;8.118;2023-04-24T00:49:08;11.40;99.90
7936;DHT22;4013;49.744;8.118;2023-04-24T00:51:35;11.40;99.90
7936;DHT22;4013;49.744;8.118;2023-04-24T00:54:02;11.40;99.90
7936;DHT22;4013;49.744;8.118;2023-04-24T00:56:30;11.40;99.90
7936;DHT22;4013;49.744;8.118;2023-04-24T00:58:59;11.50;99.90
7936;DHT22;4013;49.744;8.118;2023-04-24T01:01:26;11.50;99.90
7936;DHT22;4013;49.744;8.118;2023-04-24T01:03:53;11.50;99.90
7936;DHT22;4013;49.744;8.118;2023-04-24T01:06:20;11.60;99.90
7936;DHT22;4013;49.744;8.118;2023-04-24T01:08:48;11.60;99.90
7936;DHT22;4013;49.744;8.118;2023-04-24T01:11:15;11.60;99.90
7936;DHT22;4013;49.744;8.118;2023-04-24T01:13:42;11.70;99.90
7936;DHT22;4013;49.744;8.118;2023-04-24T01:16:11;11.70;99.90
7936;DHT22;4013;49.744;8.118;2023-04-24T01:18:38;11.70;99.90
7936;DHT22;4013;49.744;8.118;2023-04-24T01:21:05;11.80;99.90
7936;DHT22;4013;49.744;8.118;2023-04-24T01:23:36;11.80;99.90
7936;DHT22;4013;49.744;8.118;2023-04-24T01:26:03;11.70;99.90
7936;DHT22;4013;49.744;8.118;2023-04-24T01:28:30;11.70;99.90
7936;DHT22;4013;49.744;8.118;2023-04-24T01:30:57;11.70;99.90
7936;DHT22;4013;49.744;8.118;2023-04-24T01:33:25;11.80;99.90
7936;DHT22;4013;49.744;8.118;2023-04-24T01:35:52;11.80;99.90
7936;DHT22;4013;49.744;8.118;2023-04-24T01:38:19;11.90;99.90
7936;DHT22;4013;49.744;8.118;2023-04-24T01:40:47;11.90;99.90
7936;DHT22;4013;49.744;8.118;2023-04-24T01:43:15;11.90;99.90
7936;DHT22;4013;49.744;8.118;2023-04-24T01:45:43;11.90;99.90
7936;DHT22;4013;49.744;8.118;2023-04-24T01:48:10;11.90;99.90
7936;DHT22;4013;49.744;8.118;2023-04-24T01:50:37;11.90;99.90
7936;DHT22;4013;49.744;8.118;2023-04-24T01:53:04;11.90;99.90
7936;DHT22;4013;49.744;8.118;2023-04-24T01:55:31;11.90;99.90
7936;DHT22;4013;49.744;8.118;2023-04-24T01:58:00;11.80;99.90
7936;DHT22;4013;49.744;8.118;2023-04-24T02:00:27;11.80;99.90
7936;DHT22;4013;49.744;8.118;2023-04-24T02:02:54;11.70;99.90
7936;DHT22;4013;49.744;8.118;2023-04-24T02:05:22;11.70;99.90
7936;DHT22;4013;49.744;8.118;2023-04-24T02:07:49;11.70;99.90
7936;DHT22;4013;49.744;8.118;2023-04-24T02:10:16;11.70;99.90
7936;DHT22;4013;49.744;8.118;2023-04-24T02:12:42;11.70;99.90
7936;DHT22;4013;49.744;8.118;2023-04-24T02:15:11;11.60;99.90
7936;DHT22;4013;49.744;8.118;2023-04-24T02:17:38;11.60;99.90
7936;DHT22;4013;49.744;8.118;2023-04-24T02:20:07;11.70;99.90
7936;DHT22;4013;49.744;8.118;2023-04-24T02:22:34;11.70;99.90
7936;DHT22;4013;49.744;8.118;2023-04-24T02:25:01;11.60;99.90
7936;DHT22;4013;49.744;8.118;2023-04-24T02:27:28;11.60;99.90
7936;DHT22;4013;49.744;8.118;2023-04-24T02:29:55;11.60;99.90
7936;DHT22;4013;49.744;8.118;2023-04-24T02:32:23;11.60;99.90
7936;DHT22;4013;49.744;8.118;2023-04-24T02:34:50;11.60;99.90
7936;DHT22;4013;49.744;8.118;2023-04-24T02:37:17;11.60;99.90
7936;DHT22;4013;49.744;8.118;2023-04-24T02:39:44;11.60;99.90
7936;DHT22;4013;49.744;8.118;2023-04-24T02:42:11;11.60;99.90
7936;DHT22;4013;49.744;8.118;2023-04-24T02:44:38;11.50;99.90
7936;DHT22;4013;49.744;8.118;2023-04-24T02:47:05;11.40;99.90
7936;DHT22;4013;49.744;8.118;2023-04-24T02:49:34;11.40;99.90
7936;DHT22;4013;49.744;8.118;2023-04-24T02:52:01;11.30;99.90
7936;DHT22;4013;49.744;8.118;2023-04-24T02:54:28;11.30;99.90
7936;DHT22;4013;49.744;8.118;2023-04-24T02:56:55;11.20;99.90
7936;DHT22;4013;49.744;8.118;2023-04-24T02:59:22;11.20;99.90
7936;DHT22;4013;49.744;8.118;2023-04-24T03:01:49;11.20;99.90
7936;DHT22;4013;49.744;8.118;2023-04-24T03:04:16;11.20;99.90
7936;DHT22;4013;49.744;8.118;2023-04-24T03:06:47;11.30;99.90
7936;DHT22;4013;49.744;8.118;2023-04-24T03:09:14;11.20;99.90
7936;DHT22;4013;49.744;8.118;2023-04-24T03:11:40;11.20;99.90
7936;DHT22;4013;49.744;8.118;2023-04-24T03:14:07;11.20;99.90
7936;DHT22;4013;49.744;8.118;2023-04-24T03:16:34;11.10;99.90
7936;DHT22;4013;49.744;8.118;2023-04-24T03:19:01;11.00;99.90
7936;DHT22;4013;49.744;8.118;2023-04-24T03:21:28;11.10;99.90
7936;DHT22;4013;49.744;8.118;2023-04-24T03:23:57;11.00;99.90
7936;DHT22;4013;49.744;8.118;2023-04-24T03:26:24;10.90;99.90
7936;DHT22;4013;49.744;8.118;2023-04-24T03:28:51;11.00;99.90
7936;DHT22;4013;49.744;8.118;2023-04-24T03:31:18;10.90;99.90
7936;DHT22;4013;49.744;8.118;2023-04-24T03:33:46;10.90;99.90
7936;DHT22;4013;49.744;8.118;2023-04-24T03:36:13;10.90;99.90
7936;DHT22;4013;49.744;8.118;2023-04-24T03:38:40;10.90;99.90
7936;DHT22;4013;49.744;8.118;2023-04-24T03:41:08;10.80;99.90
7936;DHT22;4013;49.744;8.118;2023-04-24T03:43:35;10.70;99.90
7936;DHT22;4013;49.744;8.118;2023-04-24T03:46:02;10.70;99.90
7936;DHT22;4013;49.744;8.118;2023-04-24T03:48:29;10.60;99.90
7936;DHT22;4013;49.744;8.118;2023-04-24T03:50:56;10.60;99.90
7936;DHT22;4013;49.744;8.118;2023-04-24T03:53:23;10.50;99.90
7936;DHT22;4013;49.744;8.118;2023-04-24T03:55:50;10.50;99.90
7936;DHT22;4013;49.744;8.118;2023-04-24T03:58:19;10.50;99.90
7936;DHT22;4013;49.744;8.118;2023-04-24T04:00:46;10.40;99.90
7936;DHT22;4013;49.744;8.118;2023-04-24T04:03:13;10.40;99.90
7936;DHT22;4013;49.744;8.118;2023-04-24T04:05:40;10.40;99.90
7936;DHT22;4013;49.744;8.118;2023-04-24T04:08:07;10.30;99.90
7936;DHT22;4013;49.744;8.118;2023-04-24T04:10:34;10.40;99.90
7936;DHT22;4013;49.744;8.118;2023-04-24T04:13:01;10.30;99.90
7936;DHT22;4013;49.744;8.118;2023-04-24T04:15:29;10.30;99.90
7936;DHT22;4013;49.744;8.118;2023-04-24T04:17:56;10.30;99.90
7936;DHT22;4013;49.744;8.118;2023-04-24T04:20:23;10.20;99.90
7936;DHT22;4013;49.744;8.118;2023-04-24T04:22:50;10.20;99.90
7936;DHT22;4013;49.744;8.118;2023-04-24T04:25:17;10.20;99.90
7936;DHT22;4013;49.744;8.118;2023-04-24T04:27:45;10.30;99.90
7936;DHT22;4013;49.744;8.118;2023-04-24T04:30:13;10.20;99.90
7936;DHT22;4013;49.744;8.118;2023-04-24T04:32:42;10.10;99.90
7936;DHT22;4013;49.744;8.118;2023-04-24T04:35:09;10.00;99.90
7936;DHT22;4013;49.744;8.118;2023-04-24T04:37:36;10.00;99.90
7936;DHT22;4013;49.744;8.118;2023-04-24T04:40:04;10.00;99.90
7936;DHT22;4013;49.744;8.118;2023-04-24T04:42:32;9.90;99.90
7936;DHT22;4013;49.744;8.118;2023-04-24T04:45:00;9.90;99.90
7936;DHT22;4013;49.744;8.118;2023-04-24T04:47:28;9.90;99.90
7936;DHT22;4013;49.744;8.118;2023-04-24T04:49:58;9.90;99.90
7936;DHT22;4013;49.744;8.118;2023-04-24T04:52:25;9.90;99.90
7936;DHT22;4013;49.744;8.118;2023-04-24T04:54:52;9.90;99.90
7936;DHT22;4013;49.744;8.118;2023-04-24T04:57:19;9.90;99.90
7936;DHT22;4013;49.744;8.118;2023-04-24T04:59:47;9.90;99.90
7936;DHT22;4013;49.744;8.118;2023-04-24T05:02:14;9.90;99.90
7936;DHT22;4013;49.744;8.118;2023-04-24T05:04:41;9.80;99.90
7936;DHT22;4013;49.744;8.118;2023-04-24T05:07:09;9.70;99.90
7936;DHT22;4013;49.744;8.118;2023-04-24T05:09:36;9.70;99.90
7936;DHT22;4013;49.744;8.118;2023-04-24T05:12:03;9.70;99.90
7936;DHT22;4013;49.744;8.118;2023-04-24T05:14:31;9.70;99.90
7936;DHT22;4013;49.744;8.118;2023-04-24T05:16:57;9.80;99.90
7936;DHT22;4013;49.744;8.118;2023-04-24T05:19:25;9.70;99.90
7936;DHT22;4013;49.744;8.118;2023-04-24T05:21:52;9.80;99.90
7936;DHT22;4013;49.744;8.118;2023-04-24T05:24:21;9.80;99.90
7936;DHT22;4013;49.744;8.118;2023-04-24T05:26:48;9.80;99.90
7936;DHT22;4013;49.744;8.118;2023-04-24T05:29:15;9.80;99.90
7936;DHT22;4013;49.744;8.118;2023-04-24T05:31:44;9.80;99.90
7936;DHT22;4013;49.744;8.118;2023-04-24T05:34:11;9.90;99.90
7936;DHT22;4013;49.744;8.118;2023-04-24T05:36:38;9.90;99.90
7936;DHT22;4013;49.744;8.118;2023-04-24T05:39:05;9.80;99.90
7936;DHT22;4013;49.744;8.118;2023-04-24T05:41:33;9.80;99.90
7936;DHT22;4013;49.744;8.118;2023-04-24T05:44:00;9.90;99.90
7936;DHT22;4013;49.744;8.118;2023-04-24T05:46:27;9.90;99.90
7936;DHT22;4013;49.744;8.118;2023-04-24T05:48:54;9.90;99.90
7936;DHT22;4013;49.744;8.118;2023-04-24T05:51:21;9.90;99.90
7936;DHT22;4013;49.744;8.118;2023-04-24T05:53:48;9.90;99.90
7936;DHT22;4013;49.744;8.118;2023-04-24T05:56:15;10.00;99.90
7936;DHT22;4013;49.744;8.118;2023-04-24T05:58:44;10.00;99.90
7936;DHT22;4013;49.744;8.118;2023-04-24T06:01:11;10.10;99.90
7936;DHT22;4013;49.744;8.118;2023-04-24T06:03:40;10.10;99.90
7936;DHT22;4013;49.744;8.118;2023-04-24T06:06:07;10.20;99.90
7936;DHT22;4013;49.744;8.118;2023-04-24T06:08:34;10.30;99.90
7936;DHT22;4013;49.744;8.118;2023-04-24T06:11:02;10.40;99.90
7936;DHT22;4013;49.744;8.118;2023-04-24T06:13:29;10.50;99.90
7936;DHT22;4013;49.744;8.118;2023-04-24T06:15:57;10.60;99.90
7936;DHT22;4013;49.744;8.118;2023-04-24T06:18:24;10.60;99.90
7936;DHT22;4013;49.744;8.118;2023-04-24T06:20:51;10.70;99.90
7936;DHT22;4013;49.744;8.118;2023-04-24T06:23:18;10.70;99.90
7936;DHT22;4013;49.744;8.118;2023-04-24T06:25:45;10.70;99.90
7936;DHT22;4013;49.744;8.118;2023-04-24T06:28:12;10.80;99.90
7936;DHT22;4013;49.744;8.118;2023-04-24T06:30:39;10.80;99.90
7936;DHT22;4013;49.744;8.118;2023-04-24T06:33:08;10.90;99.90
7936;DHT22;4013;49.744;8.118;2023-04-24T06:35:35;11.10;99.90
7936;DHT22;4013;49.744;8.118;2023-04-24T06:38:03;11.20;99.90
7936;DHT22;4013;49.744;8.118;2023-04-24T06:40:30;11.20;99.90
7936;DHT22;4013;49.744;8.118;2023-04-24T06:42:57;11.20;99.90
7936;DHT22;4013;49.744;8.118;2023-04-24T06:45:25;11.20;99.90
7936;DHT22;4013;49.744;8.118;2023-04-24T06:47:52;11.20;99.90
7936;DHT22;4013;49.744;8.118;2023-04-24T06:50:21;11.30;99.90
7936;DHT22;4013;49.744;8.118;2023-04-24T06:52:48;11.30;99.90
7936;DHT22;4013;49.744;8.118;2023-04-24T06:55:15;11.50;99.90
7936;DHT22;4013;49.744;8.118;2023-04-24T06:57:42;11.60;99.90
7936;DHT22;4013;49.744;8.118;2023-04-24T07:00:11;11.60;99.90
7936;DHT22;4013;49.744;8.118;2023-04-24T07:02:38;11.50;99.90
7936;DHT22;4013;49.744;8.118;2023-04-24T07:05:05;11.50;99.90
7936;DHT22;4013;49.744;8.118;2023-04-24T07:07:35;11.50;99.90
7936;DHT22;4013;49.744;8.118;2023-04-24T07:10:04;11.50;99.90
7936;DHT22;4013;49.744;8.118;2023-04-24T07:12:31;11.40;99.90
7936;DHT22;4013;49.744;8.118;2023-04-24T07:14:58;11.40;99.90
7936;DHT22;4013;49.744;8.118;2023-04-24T07:17:25;11.40;99.90
7936;DHT22;4013;49.744;8.118;2023-04-24T07:19:52;11.50;99.90
7936;DHT22;4013;49.744;8.118;2023-04-24T07:22:19;11.40;99.90
7936;DHT22;4013;49.744;8.118;2023-04-24T07:24:47;11.40;99.90
7936;DHT22;4013;49.744;8.118;2023-04-24T07:27:14;11.50;99.90
7936;DHT22;4013;49.744;8.118;2023-04-24T07:29:41;11.60;99.90
7936;DHT22;4013;49.744;8.118;2023-04-24T07:32:08;11.70;99.90
7936;DHT22;4013;49.744;8.118;2023-04-24T07:34:35;11.80;99.90
7936;DHT22;4013;49.744;8.118;2023-04-24T07:37:02;12.10;99.90
7936;DHT22;4013;49.744;8.118;2023-04-24T07:39:29;12.00;99.90
7936;DHT22;4013;49.744;8.118;2023-04-24T07:41:58;11.80;99.90
7936;DHT22;4013;49.744;8.118;2023-04-24T07:44:27;11.70;99.90
7936;DHT22;4013;49.744;8.118;2023-04-24T07:46:55;11.70;99.90
7936;DHT22;4013;49.744;8.118;2023-04-24T07:49:22;11.80;99.90
7936;DHT22;4013;49.744;8.118;2023-04-24T07:51:49;11.70;99.90
7936;DHT22;4013;49.744;8.118;2023-04-24T07:54:16;11.60;99.90
7936;DHT22;4013;49.744;8.118;2023-04-24T07:56:43;11.60;99.90
7936;DHT22;4013;49.744;8.118;2023-04-24T07:59:11;11.50;99.90
7936;DHT22;4013;49.744;8.118;2023-04-24T08:01:38;11.50;99.90
7936;DHT22;4013;49.744;8.118;2023-04-24T08:04:05;11.40;99.90
7936;DHT22;4013;49.744;8.118;2023-04-24T08:06:32;11.30;99.90
7936;DHT22;4013;49.744;8.118;2023-04-24T08:09:00;11.30;99.90
7936;DHT22;4013;49.744;8.118;2023-04-24T08:11:27;11.30;99.90
7936;DHT22;4013;49.744;8.118;2023-04-24T08:13:54;11.50;99.90
7936;DHT22;4013;49.744;8.118;2023-04-24T08:16:22;11.60;99.90
7936;DHT22;4013;49.744;8.118;2023-04-24T08:18:50;11.70;99.90
7936;DHT22;4013;49.744;8.118;2023-04-24T08:21:17;11.90;99.90
7936;DHT22;4013;49.744;8.118;2023-04-24T08:23:45;11.90;99.90
7936;DHT22;4013;49.744;8.118;2023-04-24T08:26:13;11.90;99.90
7936;DHT22;4013;49.744;8.118;2023-04-24T08:28:40;12.00;99.90
7936;DHT22;4013;49.744;8.118;2023-04-24T08:31:07;11.90;99.90
7936;DHT22;4013;49.744;8.118;2023-04-24T08:33:35;11.80;99.90
7936;DHT22;4013;49.744;8.118;2023-04-24T08:36:03;11.80;99.90
7936;DHT22;4013;49.744;8.118;2023-04-24T08:38:30;11.70;99.90
7936;DHT22;4013;49.744;8.118;2023-04-24T08:40:59;11.60;99.90
7936;DHT22;4013;49.744;8.118;2023-04-24T08:43:27;11.60;99.90
7936;DHT22;4013;49.744;8.118;2023-04-24T08:45:56;11.50;99.90
7936;DHT22;4013;49.744;8.118;2023-04-24T08:48:23;11.50;99.90
7936;DHT22;4013;49.744;8.118;2023-04-24T08:50:51;11.50;99.90
7936;DHT22;4013;49.744;8.118;2023-04-24T08:53:18;11.50;99.90
7936;DHT22;4013;49.744;8.118;2023-04-24T08:55:47;11.70;99.90
7936;DHT22;4013;49.744;8.118;2023-04-24T08:58:16;11.80;99.90
7936;DHT22;4013;49.744;8.118;2023-04-24T09:00:43;11.90;99.90
7936;DHT22;4013;49.744;8.118;2023-04-24T09:03:13;11.80;99.90
7936;DHT22;4013;49.744;8.118;2023-04-24T09:05:42;11.90;99.90
7936;DHT22;4013;49.744;8.118;2023-04-24T09:08:13;12.00;99.90
7936;DHT22;4013;49.744;8.118;2023-04-24T09:10:41;12.20;99.90
7936;DHT22;4013;49.744;8.118;2023-04-24T09:13:08;12.30;99.90
7936;DHT22;4013;49.744;8.118;2023-04-24T09:15:36;12.00;99.90
7936;DHT22;4013;49.744;8.118;2023-04-24T09:18:03;11.80;99.90
7936;DHT22;4013;49.744;8.118;2023-04-24T09:20:31;11.70;99.90
7936;DHT22;4013;49.744;8.118;2023-04-24T09:22:58;11.70;99.90
7936;DHT22;4013;49.744;8.118;2023-04-24T09:25:31;11.90;99.90
7936;DHT22;4013;49.744;8.118;2023-04-24T09:28:01;11.90;99.90
7936;DHT22;4013;49.744;8.118;2023-04-24T09:30:28;11.80;99.90
7936;DHT22;4013;49.744;8.118;2023-04-24T09:33:10;11.80;99.90
7936;DHT22;4013;49.744;8.118;2023-04-24T09:35:40;11.80;99.90
7936;DHT22;4013;49.744;8.118;2023-04-24T09:38:07;11.80;99.90
7936;DHT22;4013;49.744;8.118;2023-04-24T09:40:35;11.90;99.90
7936;DHT22;4013;49.744;8.118;2023-04-24T09:43:02;12.00;99.90
7936;DHT22;4013;49.744;8.118;2023-04-24T09:45:36;12.00;99.90
7936;DHT22;4013;49.744;8.118;2023-04-24T09:48:03;12.00;99.90
7936;DHT22;4013;49.744;8.118;2023-04-24T09:50:31;12.10;99.90
7936;DHT22;4013;49.744;8.118;2023-04-24T09:53:02;12.20;99.90
7936;DHT22;4013;49.744;8.118;2023-04-24T09:55:29;12.20;99.90
7936;DHT22;4013;49.744;8.118;2023-04-24T09:58:00;12.40;99.90
7936;DHT22;4013;49.744;8.118;2023-04-24T10:00:31;12.50;99.90
7936;DHT22;4013;49.744;8.118;2023-04-24T10:03:00;12.40;99.90
7936;DHT22;4013;49.744;8.118;2023-04-24T10:05:28;12.30;99.90
7936;DHT22;4013;49.744;8.118;2023-04-24T10:07:57;12.20;99.90
7936;DHT22;4013;49.744;8.118;2023-04-24T10:10:25;12.10;99.90
7936;DHT22;4013;49.744;8.118;2023-04-24T10:12:52;12.20;99.90
7936;DHT22;4013;49.744;8.118;2023-04-24T10:15:21;12.10;99.90
7936;DHT22;4013;49.744;8.118;2023-04-24T10:17:49;12.20;99.90
7936;DHT22;4013;49.744;8.118;2023-04-24T10:20:22;12.30;99.90
7936;DHT22;4013;49.744;8.118;2023-04-24T10:22:51;12.40;99.90
7936;DHT22;4013;49.744;8.118;2023-04-24T10:25:20;12.50;99.90
7936;DHT22;4013;49.744;8.118;2023-04-24T10:27:48;12.70;99.90
7936;DHT22;4013;49.744;8.118;2023-04-24T10:30:16;12.90;99.90
7936;DHT22;4013;49.744;8.118;2023-04-24T10:32:45;12.90;99.90
7936;DHT22;4013;49.744;8.118;2023-04-24T10:35:13;12.60;99.90
7936;DHT22;4013;49.744;8.118;2023-04-24T10:37:44;12.50;99.90
7936;DHT22;4013;49.744;8.118;2023-04-24T10:40:16;12.40;99.90
7936;DHT22;4013;49.744;8.118;2023-04-24T10:42:47;12.20;99.90
7936;DHT22;4013;49.744;8.118;2023-04-24T10:45:17;12.10;99.90
7936;DHT22;4013;49.744;8.118;2023-04-24T10:48:03;12.00;99.90
7936;DHT22;4013;49.744;8.118;2023-04-24T10:50:43;11.90;99.90
7936;DHT22;4013;49.744;8.118;2023-04-24T10:53:16;11.80;99.90
7936;DHT22;4013;49.744;8.118;2023-04-24T10:55:46;11.70;99.90
7936;DHT22;4013;49.744;8.118;2023-04-24T10:58:13;11.70;99.90
7936;DHT22;4013;49.744;8.118;2023-04-24T11:00:42;11.90;99.90
7936;DHT22;4013;49.744;8.118;2023-04-24T11:03:25;12.10;99.90
7936;DHT22;4013;49.744;8.118;2023-04-24T11:05:57;12.30;99.90
7936;DHT22;4013;49.744;8.118;2023-04-24T11:08:37;12.50;99.90
7936;DHT22;4013;49.744;8.118;2023-04-24T11:11:10;12.50;99.90
7936;DHT22;4013;49.744;8.118;2023-04-24T11:14:08;12.50;99.90
7936;DHT22;4013;49.744;8.118;2023-04-24T11:16:38;12.30;99.90
7936;DHT22;4013;49.744;8.118;2023-04-24T11:19:08;12.10;99.90
7936;DHT22;4013;49.744;8.118;2023-04-24T11:21:42;12.10;99.90
7936;DHT22;4013;49.744;8.118;2023-04-24T11:24:27;12.10;99.90
7936;DHT22;4013;49.744;8.118;2023-04-24T11:26:55;12.20;99.90
7936;DHT22;4013;49.744;8.118;2023-04-24T11:29:38;12.40;99.90
7936;DHT22;4013;49.744;8.118;2023-04-24T11:32:15;12.60;99.90
7936;DHT22;4013;49.744;8.118;2023-04-24T11:34:47;12.70;99.90
7936;DHT22;4013;49.744;8.118;2023-04-24T11:37:15;12.70;99.90
7936;DHT22;4013;49.744;8.118;2023-04-24T11:39:42;12.60;99.90
7936;DHT22;4013;49.744;8.118;2023-04-24T11:42:09;12.50;99.90
7936;DHT22;4013;49.744;8.118;2023-04-24T11:44:36;12.30;99.90
7936;DHT22;4013;49.744;8.118;2023-04-24T11:47:04;12.10;99.90
7936;DHT22;4013;49.744;8.118;2023-04-24T11:49:31;12.00;99.90
7936;DHT22;4013;49.744;8.118;2023-04-24T11:52:00;11.90;99.90
7936;DHT22;4013;49.744;8.118;2023-04-24T11:54:27;11.90;99.90
7936;DHT22;4013;49.744;8.118;2023-04-24T11:56:55;11.70;99.90
7936;DHT22;4013;49.744;8.118;2023-04-24T11:59:22;11.30;99.90
7936;DHT22;4013;49.744;8.118;2023-04-24T12:01:49;11.10;99.90
7936;DHT22;4013;49.744;8.118;2023-04-24T12:04:18;11.10;99.90
7936;DHT22;4013;49.744;8.118;2023-04-24T12:07:02;11.10;99.90
7936;DHT22;4013;49.744;8.118;2023-04-24T12:09:32;11.40;99.90
7936;DHT22;4013;49.744;8.118;2023-04-24T12:12:06;11.80;99.90
7936;DHT22;4013;49.744;8.118;2023-04-24T12:14:42;12.00;99.90
7936;DHT22;4013;49.744;8.118;2023-04-24T12:17:09;12.20;99.90
7936;DHT22;4013;49.744;8.118;2023-04-24T12:19:36;12.40;99.90
7936;DHT22;4013;49.744;8.118;2023-04-24T12:22:05;12.40;99.90
7936;DHT22;4013;49.744;8.118;2023-04-24T12:24:32;12.50;99.90
7936;DHT22;4013;49.744;8.118;2023-04-24T12:26:59;12.60;99.90
7936;DHT22;4013;49.744;8.118;2023-04-24T12:29:27;12.80;99.90
7936;DHT22;4013;49.744;8.118;2023-04-24T12:31:54;12.90;99.90
7936;DHT22;4013;49.744;8.118;2023-04-24T12:34:23;13.00;99.90
7936;DHT22;4013;49.744;8.118;2023-04-24T12:36:50;12.90;99.90
7936;DHT22;4013;49.744;8.118;2023-04-24T12:39:19;12.90;99.90
7936;DHT22;4013;49.744;8.118;2023-04-24T12:41:55;13.00;99.90
7936;DHT22;4013;49.744;8.118;2023-04-24T12:44:32;12.90;99.90
7936;DHT22;4013;49.744;8.118;2023-04-24T12:47:00;12.90;99.90
7936;DHT22;4013;49.744;8.118;2023-04-24T12:49:27;13.00;99.90
7936;DHT22;4013;49.744;8.118;2023-04-24T12:51:54;13.00;99.90
7936;DHT22;4013;49.744;8.118;2023-04-24T12:54:23;12.90;99.90
7936;DHT22;4013;49.744;8.118;2023-04-24T12:56:50;12.90;99.90
7936;DHT22;4013;49.744;8.118;2023-04-24T12:59:17;12.60;99.90
7936;DHT22;4013;49.744;8.118;2023-04-24T13:01:44;12.50;99.90
7936;DHT22;4013;49.744;8.118;2023-04-24T13:04:11;12.40;99.90
7936;DHT22;4013;49.744;8.118;2023-04-24T13:06:38;12.50;99.90
7936;DHT22;4013;49.744;8.118;2023-04-24T13:09:05;12.40;99.90
7936;DHT22;4013;49.744;8.118;2023-04-24T13:11:33;12.50;99.90
7936;DHT22;4013;49.744;8.118;2023-04-24T13:14:00;12.50;99.90
7936;DHT22;4013;49.744;8.118;2023-04-24T13:16:27;12.70;99.90
7936;DHT22;4013;49.744;8.118;2023-04-24T13:18:54;12.70;99.90
7936;DHT22;4013;49.744;8.118;2023-04-24T13:21:21;12.80;99.90
7936;DHT22;4013;49.744;8.118;2023-04-24T13:23:48;12.70;99.90
7936;DHT22;4013;49.744;8.118;2023-04-24T13:26:15;12.70;99.90
7936;DHT22;4013;49.744;8.118;2023-04-24T13:28:48;12.70;99.90
7936;DHT22;4013;49.744;8.118;2023-04-24T13:31:18;12.90;99.90
7936;DHT22;4013;49.744;8.118;2023-04-24T13:33:44;13.10;99.90
7936;DHT22;4013;49.744;8.118;2023-04-24T13:36:11;13.30;99.90
7936;DHT22;4013;49.744;8.118;2023-04-24T13:38:41;13.40;99.90
7936;DHT22;4013;49.744;8.118;2023-04-24T13:41:08;13.40;99.90
7936;DHT22;4013;49.744;8.118;2023-04-24T13:43:35;13.40;99.90
7936;DHT22;4013;49.744;8.118;2023-04-24T13:46:03;13.30;99.90
7936;DHT22;4013;49.744;8.118;2023-04-24T13:48:30;13.30;99.90
7936;DHT22;4013;49.744;8.118;2023-04-24T13:51:01;13.20;99.90
7936;DHT22;4013;49.744;8.118;2023-04-24T13:53:28;13.00;99.90
7936;DHT22;4013;49.744;8.118;2023-04-24T13:55:55;13.10;99.90
7936;DHT22;4013;49.744;8.118;2023-04-24T13:58:25;13.20;99.90
7936;DHT22;4013;49.744;8.118;2023-04-24T14:00:53;13.20;99.90
7936;DHT22;4013;49.744;8.118;2023-04-24T14:03:21;13.30;99.90
7936;DHT22;4013;49.744;8.118;2023-04-24T14:05:48;13.40;99.90
7936;DHT22;4013;49.744;8.118;2023-04-24T14:08:15;13.60;99.90
7936;DHT22;4013;49.744;8.118;2023-04-24T14:10:42;13.80;99.90
7936;DHT22;4013;49.744;8.118;2023-04-24T14:13:09;14.00;99.90
7936;DHT22;4013;49.744;8.118;2023-04-24T14:15:36;13.90;99.90
7936;DHT22;4013;49.744;8.118;2023-04-24T14:18:03;13.80;99.90
7936;DHT22;4013;49.744;8.118;2023-04-24T14:20:32;13.70;99.90
7936;DHT22;4013;49.744;8.118;2023-04-24T14:22:59;13.70;99.90
7936;DHT22;4013;49.744;8.118;2023-04-24T14:25:26;13.70;99.90
7936;DHT22;4013;49.744;8.118;2023-04-24T14:27:53;13.80;99.90
7936;DHT22;4013;49.744;8.118;2023-04-24T14:30:20;13.80;99.90
7936;DHT22;4013;49.744;8.118;2023-04-24T14:32:48;13.70;99.90
7936;DHT22;4013;49.744;8.118;2023-04-24T14:35:15;13.50;99.90
7936;DHT22;4013;49.744;8.118;2023-04-24T14:37:44;13.50;99.90
7936;DHT22;4013;49.744;8.118;2023-04-24T14:40:11;13.30;99.90
7936;DHT22;4013;49.744;8.118;2023-04-24T14:42:38;12.90;99.90
7936;DHT22;4013;49.744;8.118;2023-04-24T14:45:05;12.60;99.90
7936;DHT22;4013;49.744;8.118;2023-04-24T14:47:33;12.60;99.90
7936;DHT22;4013;49.744;8.118;2023-04-24T14:50:00;12.70;99.90
7936;DHT22;4013;49.744;8.118;2023-04-24T14:52:27;12.60;99.90
7936;DHT22;4013;49.744;8.118;2023-04-24T14:54:55;12.60;99.90
7936;DHT22;4013;49.744;8.118;2023-04-24T14:57:22;12.50;99.90
7936;DHT22;4013;49.744;8.118;2023-04-24T14:59:52;12.50;99.90
7936;DHT22;4013;49.744;8.118;2023-04-24T15:02:29;12.50;99.90
7936;DHT22;4013;49.744;8.118;2023-04-24T15:04:56;12.50;99.90
7936;DHT22;4013;49.744;8.118;2023-04-24T15:07:26;12.70;99.90
7936;DHT22;4013;49.744;8.118;2023-04-24T15:09:56;12.80;99.90
7936;DHT22;4013;49.744;8.118;2023-04-24T15:12:23;13.00;99.90
7936;DHT22;4013;49.744;8.118;2023-04-24T15:14:50;13.20;99.90
7936;DHT22;4013;49.744;8.118;2023-04-24T15:17:17;13.40;99.90
7936;DHT22;4013;49.744;8.118;2023-04-24T15:19:44;13.50;99.90
7936;DHT22;4013;49.744;8.118;2023-04-24T15:22:11;13.80;99.90
7936;DHT22;4013;49.744;8.118;2023-04-24T15:24:38;13.80;99.90
7936;DHT22;4013;49.744;8.118;2023-04-24T15:27:09;13.90;99.90
7936;DHT22;4013;49.744;8.118;2023-04-24T15:29:36;13.90;99.90
7936;DHT22;4013;49.744;8.118;2023-04-24T15:32:04;13.90;99.90
7936;DHT22;4013;49.744;8.118;2023-04-24T15:34:31;14.00;99.90
7936;DHT22;4013;49.744;8.118;2023-04-24T15:36:58;14.00;99.90
7936;DHT22;4013;49.744;8.118;2023-04-24T15:39:25;13.90;99.90
7936;DHT22;4013;49.744;8.118;2023-04-24T15:41:52;13.80;99.90
7936;DHT22;4013;49.744;8.118;2023-04-24T15:44:21;13.80;99.90
7936;DHT22;4013;49.744;8.118;2023-04-24T15:46:48;13.60;99.90
7936;DHT22;4013;49.744;8.118;2023-04-24T15:49:17;13.50;99.90
7936;DHT22;4013;49.744;8.118;2023-04-24T15:51:44;13.40;99.90
7936;DHT22;4013;49.744;8.118;2023-04-24T15:54:11;13.50;99.90
7936;DHT22;4013;49.744;8.118;2023-04-24T15:56:37;13.50;99.90
7936;DHT22;4013;49.744;8.118;2023-04-24T15:59:04;13.50;99.90
7936;DHT22;4013;49.744;8.118;2023-04-24T16:01:33;13.50;99.90
7936;DHT22;4013;49.744;8.118;2023-04-24T16:04:00;13.50;99.90
7936;DHT22;4013;49.744;8.118;2023-04-24T16:06:27;13.50;99.90
7936;DHT22;4013;49.744;8.118;2023-04-24T16:08:54;13.60;99.90